Time;durP1;ratioP1;P1;durP2;ratioP2;P2;SDS_P1;SDS_P2;PMS_P1;PMS_P2;Temp;Humidity;BMP_temperature;BMP_pressure;BME280_temperature;BME280_humidity;BME280_pressure;Samples;Min_cycle;Max_cycle;Signal;HPM_P1;HPM_P2
2021/01/24 00:00:55;;;;;;;11.02;6.53;;;4.70;99.90;;;;;;5008827;28;20452;-53
2021/01/24 00:03:22;;;;;;;12.40;7.22;;;2.90;99.90;;;;;;5009388;28;20388;-54
2021/01/24 00:05:48;;;;;;;10.82;6.80;;;3.70;99.90;;;;;;5008386;28;20409;-53
2021/01/24 00:08:14;;;;;;;11.87;6.90;;;3.60;99.90;;;;;;5007630;28;20419;-53
2021/01/24 00:10:40;;;;;;;9.90;6.30;;;3.90;99.90;;;;;;5008726;28;20405;-54
2021/01/24 00:13:06;;;;;;;10.60;5.75;;;3.90;99.90;;;;;;5008895;28;20890;-53
2021/01/24 00:15:31;;;;;;;9.18;5.80;;;3.10;99.90;;;;;;5009521;28;20369;-53
2021/01/24 00:17:57;;;;;;;9.80;6.15;;;4.60;99.90;;;;;;5008478;28;20435;-53
2021/01/24 00:20:23;;;;;;;10.43;6.30;;;3.20;99.90;;;;;;5007606;28;20471;-53
2021/01/24 00:22:49;;;;;;;10.60;6.00;;;3.20;99.90;;;;;;5008669;28;20432;-53
2021/01/24 00:25:14;;;;;;;8.60;5.30;;;3.20;99.90;;;;;;5009010;28;20428;-53
2021/01/24 00:27:40;;;;;;;9.93;5.90;;;5.30;99.90;;;;;;5009113;28;20385;-54
2021/01/24 00:30:07;;;;;;;11.33;6.50;;;3.40;99.90;;;;;;5008506;28;20925;-54
2021/01/24 00:32:33;;;;;;;10.52;5.90;;;3.50;99.90;;;;;;5002139;28;20424;-54
2021/01/24 00:34:59;;;;;;;11.00;6.60;;;4.20;99.90;;;;;;5005660;28;20377;-53
2021/01/24 00:37:25;;;;;;;11.10;6.90;;;5.30;99.90;;;;;;5006522;28;20500;-53
2021/01/24 00:39:51;;;;;;;11.15;7.28;;;5.00;99.90;;;;;;5002578;28;20862;-54
2021/01/24 00:42:16;;;;;;;9.30;6.20;;;3.50;99.90;;;;;;5009389;28;20387;-53
2021/01/24 00:44:42;;;;;;;9.90;6.07;;;3.60;99.90;;;;;;5006492;28;20782;-53
2021/01/24 00:47:08;;;;;;;10.53;6.40;;;3.60;99.90;;;;;;5007202;28;20405;-54
2021/01/24 00:49:33;;;;;;;11.67;6.80;;;3.60;99.90;;;;;;5008919;28;20467;-53
2021/01/24 00:51:59;;;;;;;10.40;6.30;;;3.50;99.90;;;;;;5010103;28;20439;-54
2021/01/24 00:54:25;;;;;;;10.70;6.40;;;4.30;99.90;;;;;;5002234;28;20454;-53
2021/01/24 00:56:50;;;;;;;12.10;6.90;;;3.50;99.90;;;;;;5007433;28;20394;-54
2021/01/24 00:59:16;;;;;;;10.20;6.33;;;4.80;99.90;;;;;;5001860;28;20412;-53
2021/01/24 01:01:42;;;;;;;9.43;6.30;;;4.70;99.90;;;;;;5001884;28;20448;-53
2021/01/24 01:04:07;;;;;;;10.93;6.13;;;3.40;99.90;;;;;;4993772;28;20908;-53
2021/01/24 01:06:34;;;;;;;8.68;5.00;;;3.70;99.90;;;;;;5004706;28;21274;-54
2021/01/24 01:08:59;;;;;;;8.13;4.30;;;5.90;99.90;;;;;;4999268;28;20418;-53
2021/01/24 01:11:25;;;;;;;6.70;3.80;;;3.30;99.90;;;;;;5007711;28;20467;-53
2021/01/24 01:13:51;;;;;;;6.80;3.90;;;6.00;99.90;;;;;;5002460;28;20409;-53
2021/01/24 01:16:16;;;;;;;5.87;3.50;;;3.20;99.90;;;;;;5003740;28;20414;-53
2021/01/24 01:18:42;;;;;;;5.95;3.50;;;3.20;99.90;;;;;;4997335;28;20494;-53
2021/01/24 01:21:07;;;;;;;5.50;3.30;;;5.60;99.90;;;;;;5010912;28;20908;-53
2021/01/24 01:23:33;;;;;;;7.28;3.42;;;3.20;99.90;;;;;;5010686;28;20392;-53
2021/01/24 01:25:59;;;;;;;5.13;2.80;;;3.20;99.90;;;;;;5011467;28;20428;-54
2021/01/24 01:28:25;;;;;;;6.20;3.27;;;3.20;99.90;;;;;;5009967;28;20456;-53
2021/01/24 01:30:50;;;;;;;6.35;3.50;;;3.20;99.90;;;;;;5012789;28;20785;-54
2021/01/24 01:33:16;;;;;;;5.35;2.90;;;5.50;99.90;;;;;;5009572;28;20397;-54
2021/01/24 01:35:42;;;;;;;6.57;2.70;;;3.90;99.90;;;;;;5012232;28;20384;-53
2021/01/24 01:38:09;;;;;;;5.40;2.63;;;3.20;99.90;;;;;;5012351;28;20894;-54
2021/01/24 01:40:36;;;;;;;4.80;2.30;;;3.10;99.90;;;;;;5009335;28;20500;-53
2021/01/24 01:43:02;;;;;;;5.33;2.80;;;3.20;99.90;;;;;;5011995;28;20835;-54
2021/01/24 01:45:28;;;;;;;4.70;2.50;;;3.10;99.90;;;;;;5012023;28;20394;-54
2021/01/24 01:47:53;;;;;;;4.60;2.30;;;3.10;99.90;;;;;;5010015;28;20396;-53
2021/01/24 01:50:20;;;;;;;4.50;2.33;;;2.90;99.90;;;;;;5011465;28;20388;-53
2021/01/24 01:52:46;;;;;;;4.30;2.00;;;2.90;99.90;;;;;;5007254;28;20870;-53
2021/01/24 01:55:13;;;;;;;4.35;2.05;;;2.90;99.90;;;;;;5005457;28;20385;-54
2021/01/24 01:57:39;;;;;;;4.30;2.00;;;5.70;99.90;;;;;;5010186;28;20471;-53
2021/01/24 02:00:08;;;;;;;3.90;1.70;;;5.70;99.90;;;;;;5011172;28;20408;-53
2021/01/24 02:03:04;;;;;;;3.97;1.80;;;3.00;99.90;;;;;;5010307;28;20405;-53
2021/01/24 02:05:54;;;;;;;4.72;1.80;;;3.10;99.90;;;;;;5007612;28;20981;-53
2021/01/24 02:08:40;;;;;;;4.05;1.77;;;3.10;99.90;;;;;;5010466;28;20421;-53
2021/01/24 02:11:18;;;;;;;3.33;1.45;;;3.20;99.90;;;;;;4994638;28;20451;-53
2021/01/24 02:14:07;;;;;;;3.80;1.80;;;3.20;99.90;;;;;;5009524;28;20428;-53
2021/01/24 02:16:39;;;;;;;3.42;1.50;;;3.20;99.90;;;;;;5010579;28;20399;-53
2021/01/24 02:19:09;;;;;;;3.33;1.40;;;3.10;99.90;;;;;;5010705;28;20969;-53
2021/01/24 02:21:39;;;;;;;4.43;1.70;;;5.20;99.90;;;;;;5010485;28;20404;-53
2021/01/24 02:24:10;;;;;;;4.70;1.50;;;2.90;99.90;;;;;;5011887;28;20416;-54
2021/01/24 02:26:46;;;;;;;3.65;1.50;;;2.90;99.90;;;;;;5008802;28;20888;-53
2021/01/24 02:29:34;;;;;;;2.70;1.00;;;2.70;99.90;;;;;;5012019;28;20423;-53
2021/01/24 02:32:02;;;;;;;2.50;0.70;;;2.40;99.90;;;;;;5010241;28;20540;-53
2021/01/24 02:34:32;;;;;;;2.50;0.60;;;5.10;99.90;;;;;;5012069;28;20391;-53
2021/01/24 02:37:00;;;;;;;1.90;0.35;;;2.30;99.90;;;;;;5009183;28;20419;-53
2021/01/24 02:39:27;;;;;;;2.00;0.50;;;3.60;99.90;;;;;;5011928;28;20847;-53
2021/01/24 02:41:53;;;;;;;2.40;0.60;;;4.30;99.90;;;;;;5009393;28;20427;-53
2021/01/24 02:44:20;;;;;;;2.20;0.50;;;5.10;99.90;;;;;;5011258;28;20902;-53
2021/01/24 02:46:47;;;;;;;2.60;0.90;;;4.90;99.90;;;;;;5007842;28;20409;-53
2021/01/24 02:49:14;;;;;;;2.58;0.80;;;2.70;99.90;;;;;;5011994;28;20838;-53
2021/01/24 02:51:41;;;;;;;2.33;0.70;;;2.10;99.90;;;;;;5010878;28;20401;-53
2021/01/24 02:54:08;;;;;;;2.80;0.90;;;2.10;99.90;;;;;;5011113;28;20426;-53
2021/01/24 02:56:33;;;;;;;2.50;1.00;;;2.10;99.90;;;;;;5009861;28;20484;-53
2021/01/24 02:59:01;;;;;;;3.20;1.10;;;3.60;99.90;;;;;;5011487;28;20468;-53
2021/01/24 03:01:26;;;;;;;3.22;1.10;;;3.50;99.90;;;;;;5009241;28;20405;-53
2021/01/24 03:03:52;;;;;;;2.70;0.80;;;2.70;99.90;;;;;;5008989;28;20902;-54
2021/01/24 03:06:18;;;;;;;3.23;1.37;;;3.30;99.90;;;;;;5011472;28;20385;-53
2021/01/24 03:08:44;;;;;;;4.47;1.23;;;3.50;99.90;;;;;;5009611;28;20450;-53
2021/01/24 03:11:12;;;;;;;3.58;1.35;;;2.40;99.90;;;;;;5009691;28;20459;-53
2021/01/24 03:14:05;;;;;;;3.47;1.42;;;2.60;99.90;;;;;;5008475;28;20405;-53
2021/01/24 03:16:32;;;;;;;3.50;1.30;;;2.00;99.90;;;;;;5010182;28;20471;-53
2021/01/24 03:18:59;;;;;;;4.07;1.70;;;4.90;99.90;;;;;;5009559;28;20437;-53
2021/01/24 03:21:26;;;;;;;5.30;1.95;;;3.40;99.90;;;;;;5010468;28;20389;-54
2021/01/24 03:23:53;;;;;;;4.80;2.10;;;2.10;99.90;;;;;;5010419;28;20482;-53
2021/01/24 03:26:20;;;;;;;4.90;2.13;;;2.00;99.90;;;;;;5008325;28;20506;-53
2021/01/24 03:28:46;;;;;;;5.65;2.60;;;1.90;99.90;;;;;;5011648;28;20416;-54
2021/01/24 03:31:11;;;;;;;6.22;2.70;;;1.90;99.90;;;;;;5009266;28;20413;-53
2021/01/24 03:33:39;;;;;;;5.03;2.77;;;1.90;99.90;;;;;;5008749;28;21166;-53
2021/01/24 03:36:06;;;;;;;7.22;3.60;;;1.90;99.90;;;;;;5011188;28;20384;-53
2021/01/24 03:38:31;;;;;;;5.35;2.55;;;1.90;99.90;;;;;;5009932;28;20403;-53
2021/01/24 03:40:57;;;;;;;5.77;2.90;;;2.70;99.90;;;;;;5009138;28;20400;-53
2021/01/24 03:43:23;;;;;;;6.60;2.83;;;1.80;99.90;;;;;;5008509;28;20424;-53
2021/01/24 03:45:48;;;;;;;8.13;3.47;;;1.90;99.90;;;;;;5010440;28;20771;-54
2021/01/24 03:48:14;;;;;;;7.70;3.40;;;3.80;99.90;;;;;;5008549;28;20409;-54
2021/01/24 03:50:40;;;;;;;7.80;3.80;;;1.90;99.90;;;;;;5008140;28;20397;-53
2021/01/24 03:53:05;;;;;;;7.63;3.33;;;4.40;99.90;;;;;;5008662;28;20816;-53
2021/01/24 03:55:31;;;;;;;6.85;3.03;;;3.70;99.90;;;;;;5009079;28;20411;-53
2021/01/24 03:57:57;;;;;;;8.60;3.40;;;2.40;99.90;;;;;;5010113;28;20392;-53
2021/01/24 04:00:23;;;;;;;6.50;3.03;;;2.00;99.90;;;;;;5008306;28;20471;-53
2021/01/24 04:02:49;;;;;;;5.43;2.50;;;2.00;99.90;;;;;;5009146;28;20754;-53
2021/01/24 04:05:14;;;;;;;6.60;2.67;;;4.40;99.90;;;;;;5009285;28;20393;-53
2021/01/24 04:07:40;;;;;;;6.60;3.35;;;4.00;99.90;;;;;;5008582;28;20459;-54
2021/01/24 04:10:07;;;;;;;5.07;2.20;;;2.00;99.90;;;;;;5009049;28;20763;-53
2021/01/24 04:12:34;;;;;;;7.05;2.38;;;1.90;99.90;;;;;;5009517;28;20416;-53
2021/01/24 04:15:00;;;;;;;5.80;2.33;;;2.80;99.90;;;;;;5009945;28;20389;-53
2021/01/24 04:17:25;;;;;;;5.13;2.40;;;1.80;99.90;;;;;;5007327;28;20396;-53
2021/01/24 04:19:51;;;;;;;6.03;3.17;;;2.00;99.90;;;;;;5010547;28;20916;-54
2021/01/24 04:22:17;;;;;;;5.72;1.88;;;1.80;99.90;;;;;;5009169;28;20397;-53
2021/01/24 04:24:42;;;;;;;7.18;2.75;;;1.70;99.90;;;;;;5009645;28;20381;-53
2021/01/24 04:27:08;;;;;;;5.83;2.80;;;1.80;99.90;;;;;;5009108;28;20401;-53
2021/01/24 04:29:34;;;;;;;5.38;2.45;;;1.80;99.90;;;;;;5010155;28;20459;-53
2021/01/24 04:32:00;;;;;;;6.03;2.80;;;1.80;99.90;;;;;;5008811;28;20413;-53
2021/01/24 04:34:25;;;;;;;6.28;2.72;;;1.80;99.90;;;;;;5007644;28;20504;-53
2021/01/24 04:36:51;;;;;;;6.13;2.60;;;1.80;99.90;;;;;;5010304;28;20488;-53
2021/01/24 04:39:17;;;;;;;5.27;2.30;;;3.90;99.90;;;;;;5008519;28;20756;-53
2021/01/24 04:41:48;;;;;;;6.95;2.88;;;1.70;99.90;;;;;;5009358;28;20383;-53
2021/01/24 04:44:14;;;;;;;4.90;2.20;;;4.10;99.90;;;;;;5008307;28;20479;-53
2021/01/24 04:46:40;;;;;;;6.05;2.50;;;3.60;99.90;;;;;;5009090;28;20393;-53
2021/01/24 04:49:06;;;;;;;5.13;2.00;;;1.60;99.90;;;;;;5009979;28;20404;-53
2021/01/24 04:51:32;;;;;;;7.60;2.30;;;1.70;99.90;;;;;;5007446;28;20763;-53
2021/01/24 04:53:58;;;;;;;3.80;1.40;;;2.90;99.90;;;;;;5010677;28;20459;-53
2021/01/24 04:56:24;;;;;;;5.47;2.20;;;1.90;99.90;;;;;;5011821;28;20404;-53
2021/01/24 04:58:53;;;;;;;6.07;2.25;;;4.20;99.90;;;;;;5013168;28;20815;-53
2021/01/24 05:01:20;;;;;;;6.63;2.03;;;1.70;99.90;;;;;;5012992;28;20392;-53
2021/01/24 05:03:48;;;;;;;3.85;2.00;;;4.20;99.90;;;;;;5011602;28;20405;-54
2021/01/24 05:06:13;;;;;;;5.60;2.30;;;3.00;99.90;;;;;;5013118;28;20443;-54
2021/01/24 05:08:45;;;;;;;9.17;2.37;;;1.60;99.90;;;;;;5010888;28;20781;-53
2021/01/24 05:11:12;;;;;;;5.15;2.30;;;1.60;99.90;;;;;;5013481;28;20476;-54
2021/01/24 05:13:38;;;;;;;7.20;2.40;;;1.70;99.90;;;;;;5012488;28;20996;-54
2021/01/24 05:16:06;;;;;;;4.87;2.03;;;1.50;99.90;;;;;;5012025;28;20495;-54
2021/01/24 05:18:31;;;;;;;5.70;2.30;;;1.50;99.90;;;;;;5011103;28;20415;-53
2021/01/24 05:20:58;;;;;;;4.40;1.40;;;1.90;99.90;;;;;;5012667;28;20405;-54
2021/01/24 05:23:25;;;;;;;3.92;1.60;;;1.50;99.90;;;;;;5010983;28;20401;-53
2021/01/24 05:25:56;;;;;;;3.72;1.88;;;1.50;99.90;;;;;;5011731;28;20755;-54
2021/01/24 05:28:27;;;;;;;6.30;2.53;;;1.50;99.90;;;;;;5011105;28;20417;-53
2021/01/24 05:31:03;;;;;;;5.65;2.20;;;1.40;99.90;;;;;;5010455;28;20459;-53
2021/01/24 05:33:29;;;;;;;4.28;1.80;;;3.50;99.90;;;;;;5012201;28;20405;-52
2021/01/24 05:35:54;;;;;;;5.50;2.23;;;2.20;99.90;;;;;;5011599;28;20452;-52
2021/01/24 05:38:31;;;;;;;6.93;2.50;;;1.40;99.90;;;;;;5007129;28;20404;-54
2021/01/24 05:41:01;;;;;;;5.10;2.40;;;1.50;99.90;;;;;;5011405;28;20404;-54
2021/01/24 05:43:32;;;;;;;5.20;2.60;;;4.10;99.90;;;;;;5010677;28;20411;-54
2021/01/24 05:45:58;;;;;;;6.00;2.47;;;1.40;99.90;;;;;;5012489;28;20427;-54
2021/01/24 05:48:24;;;;;;;5.03;2.47;;;1.40;99.90;;;;;;5010503;28;20516;-54
2021/01/24 05:50:51;;;;;;;5.90;2.40;;;3.40;99.90;;;;;;5012228;28;20480;-54
2021/01/24 05:53:17;;;;;;;6.57;2.42;;;1.90;99.90;;;;;;5009061;28;20479;-54
2021/01/24 05:55:44;;;;;;;5.70;1.95;;;2.30;99.90;;;;;;5006842;28;20401;-54
2021/01/24 05:58:20;;;;;;;5.72;2.40;;;4.20;99.90;;;;;;5011953;28;20507;-54
2021/01/24 06:00:48;;;;;;;5.55;2.20;;;1.20;99.90;;;;;;5007954;28;20992;-52
2021/01/24 06:03:14;;;;;;;5.28;2.20;;;1.20;99.90;;;;;;5011439;28;20911;-52
2021/01/24 06:05:41;;;;;;;6.22;2.63;;;1.20;99.90;;;;;;5009338;28;20429;-53
2021/01/24 06:08:08;;;;;;;7.05;2.38;;;2.20;99.90;;;;;;5006869;28;20388;-52
2021/01/24 06:10:34;;;;;;;5.75;1.95;;;1.20;99.90;;;;;;5008899;28;20455;-52
2021/01/24 06:13:00;;;;;;;4.85;2.50;;;1.50;99.90;;;;;;5010755;28;20890;-54
2021/01/24 06:15:30;;;;;;;6.03;2.78;;;1.10;99.90;;;;;;5010875;28;20509;-52
2021/01/24 06:18:00;;;;;;;6.10;2.50;;;1.10;99.90;;;;;;5010141;28;20409;-54
2021/01/24 06:20:41;;;;;;;6.90;2.80;;;1.10;99.90;;;;;;5010730;28;20404;-52
2021/01/24 06:23:25;;;;;;;7.35;2.92;;;3.80;99.90;;;;;;5010588;28;20404;-52
2021/01/24 06:25:53;;;;;;;5.90;3.10;;;1.10;99.90;;;;;;5011821;28;20393;-52
2021/01/24 06:28:25;;;;;;;7.15;2.53;;;1.00;99.90;;;;;;5010553;28;21192;-52
2021/01/24 06:30:51;;;;;;;5.55;2.40;;;1.00;99.90;;;;;;5008732;28;20747;-53
2021/01/24 06:33:20;;;;;;;6.50;2.80;;;1.00;99.90;;;;;;5011381;28;20395;-52
2021/01/24 06:35:51;;;;;;;7.13;3.40;;;1.00;99.90;;;;;;5010993;28;20511;-53
2021/01/24 06:38:34;;;;;;;6.93;2.85;;;1.10;99.90;;;;;;5009524;28;20515;-53
2021/01/24 06:41:05;;;;;;;8.10;2.95;;;1.10;99.90;;;;;;5005816;28;20400;-53
2021/01/24 06:43:45;;;;;;;5.65;2.80;;;1.10;99.90;;;;;;5007463;28;20389;-52
2021/01/24 06:46:31;;;;;;;4.70;2.50;;;1.00;99.90;;;;;;5009474;28;20881;-53
2021/01/24 06:48:57;;;;;;;5.30;2.50;;;1.00;99.90;;;;;;5001039;28;20420;-53
2021/01/24 06:51:36;;;;;;;6.90;2.58;;;3.60;99.90;;;;;;5010079;28;20397;-52
2021/01/24 06:54:25;;;;;;;5.35;1.88;;;1.10;99.90;;;;;;5008907;28;20409;-53
2021/01/24 06:56:51;;;;;;;4.80;2.10;;;1.00;99.90;;;;;;5011756;28;20409;-53
2021/01/24 06:59:28;;;;;;;9.68;2.38;;;1.00;99.90;;;;;;5009369;28;20415;-53
2021/01/24 07:02:22;;;;;;;4.93;2.20;;;1.10;99.90;;;;;;5009620;28;20512;-53
2021/01/24 07:05:07;;;;;;;5.72;2.30;;;1.00;99.90;;;;;;4991892;28;20406;-53
2021/01/24 07:07:35;;;;;;;6.18;2.28;;;1.10;99.90;;;;;;5008234;28;20400;-53
2021/01/24 07:10:02;;;;;;;7.28;2.85;;;3.90;99.90;;;;;;5009053;28;20456;-53
2021/01/24 07:12:48;;;;;;;5.00;2.30;;;3.30;99.90;;;;;;5009106;28;20462;-53
2021/01/24 07:15:20;;;;;;;5.25;2.03;;;1.10;99.90;;;;;;5008318;28;20890;-53
2021/01/24 07:17:57;;;;;;;5.40;2.40;;;3.40;99.90;;;;;;5009515;28;20866;-53
2021/01/24 07:20:23;;;;;;;5.75;1.90;;;1.10;99.90;;;;;;5009357;28;20400;-52
2021/01/24 07:22:50;;;;;;;4.70;1.80;;;1.10;99.90;;;;;;5008823;28;20416;-53
2021/01/24 07:25:18;;;;;;;4.82;2.08;;;1.20;99.90;;;;;;5010263;28;20388;-53
2021/01/24 07:27:44;;;;;;;6.45;2.20;;;-0.60;99.90;;;;;;5008116;28;20455;-54
2021/01/24 07:30:10;;;;;;;5.30;1.90;;;4.30;99.90;;;;;;5010081;28;20412;-53
2021/01/24 07:32:39;;;;;;;5.95;2.00;;;1.20;99.90;;;;;;5006293;28;20904;-53
2021/01/24 07:35:06;;;;;;;3.83;1.67;;;1.20;99.90;;;;;;5009722;28;20400;-53
2021/01/24 07:37:31;;;;;;;5.20;1.92;;;1.10;99.90;;;;;;5007965;28;20393;-52
2021/01/24 07:39:59;;;;;;;4.03;1.90;;;3.70;99.90;;;;;;5008704;28;20424;-55
2021/01/24 07:42:24;;;;;;;4.80;2.30;;;1.20;99.90;;;;;;5008442;28;20460;-54
2021/01/24 07:44:50;;;;;;;5.13;2.20;;;1.70;99.90;;;;;;5008503;28;20875;-54
2021/01/24 07:47:16;;;;;;;8.45;2.50;;;3.00;99.90;;;;;;5008061;28;20404;-55
2021/01/24 07:49:42;;;;;;;5.30;2.20;;;3.40;99.90;;;;;;5008509;28;20770;-58
2021/01/24 07:52:08;;;;;;;5.40;2.10;;;4.10;99.90;;;;;;5008205;28;20405;-54
2021/01/24 07:54:35;;;;;;;5.43;2.20;;;4.50;99.90;;;;;;5007877;28;20463;-55
2021/01/24 07:57:02;;;;;;;5.30;1.90;;;1.60;99.90;;;;;;5006190;28;20412;-55
2021/01/24 07:59:28;;;;;;;5.38;2.28;;;1.60;99.90;;;;;;5006883;28;20730;-55
2021/01/24 08:01:54;;;;;;;6.30;2.33;;;3.00;99.90;;;;;;5007615;28;20440;-55
2021/01/24 08:04:25;;;;;;;5.57;2.30;;;1.70;99.90;;;;;;5010072;28;20517;-54
2021/01/24 08:06:52;;;;;;;5.00;2.13;;;1.70;99.90;;;;;;5007407;28;21740;-54
2021/01/24 08:09:19;;;;;;;5.70;2.10;;;1.60;99.90;;;;;;5007365;28;20408;-55
2021/01/24 08:11:45;;;;;;;4.85;1.77;;;1.50;99.90;;;;;;5007167;28;20405;-54
2021/01/24 08:14:11;;;;;;;4.70;2.15;;;2.80;99.90;;;;;;5008622;28;20456;-54
2021/01/24 08:16:43;;;;;;;6.05;2.45;;;3.60;99.90;;;;;;5004626;28;20961;-54
2021/01/24 08:19:13;;;;;;;5.45;2.10;;;1.40;99.90;;;;;;5008679;28;20381;-54
2021/01/24 08:21:39;;;;;;;5.15;2.33;;;1.40;99.90;;;;;;5006268;28;20397;-55
2021/01/24 08:24:06;;;;;;;5.68;3.00;;;1.40;99.90;;;;;;5007450;28;20988;-54
2021/01/24 08:26:34;;;;;;;5.28;2.60;;;1.40;99.90;;;;;;5006686;28;20409;-55
2021/01/24 08:29:00;;;;;;;5.30;2.30;;;1.70;99.90;;;;;;5008261;28;20491;-55
2021/01/24 08:31:27;;;;;;;5.35;2.00;;;4.10;99.90;;;;;;5011649;28;20411;-54
2021/01/24 08:33:55;;;;;;;5.23;2.20;;;3.00;99.90;;;;;;5009335;28;20451;-55
2021/01/24 08:36:24;;;;;;;5.00;2.20;;;5.50;99.90;;;;;;5007633;28;20399;-52
2021/01/24 08:38:50;;;;;;;8.43;2.70;;;4.20;99.90;;;;;;5011916;28;20905;-53
2021/01/24 08:41:17;;;;;;;6.93;2.40;;;3.90;99.90;;;;;;5008640;28;20401;-55
2021/01/24 08:43:43;;;;;;;5.10;2.17;;;2.80;99.90;;;;;;5008108;28;20852;-55
2021/01/24 08:46:19;;;;;;;7.40;2.25;;;2.50;99.90;;;;;;5013343;28;20413;-54
2021/01/24 08:48:56;;;;;;;5.05;2.15;;;2.30;99.90;;;;;;5010788;28;20887;-55
2021/01/24 08:51:22;;;;;;;6.90;3.00;;;4.00;99.90;;;;;;5011678;28;20409;-54
2021/01/24 08:53:48;;;;;;;6.57;2.50;;;2.30;99.90;;;;;;5011253;28;20405;-55
2021/01/24 08:56:20;;;;;;;4.43;1.95;;;2.20;99.90;;;;;;5013040;28;20376;-54
2021/01/24 08:58:46;;;;;;;6.20;2.10;;;2.00;99.90;;;;;;5009865;28;20536;-54
2021/01/24 09:01:13;;;;;;;7.10;2.50;;;2.90;99.90;;;;;;5008345;28;20512;-54
2021/01/24 09:03:39;;;;;;;5.07;2.10;;;1.80;99.90;;;;;;5009719;28;20405;-54
2021/01/24 09:06:18;;;;;;;6.95;2.50;;;1.80;99.90;;;;;;5012611;28;20385;-54
2021/01/24 09:08:46;;;;;;;7.10;2.88;;;1.70;99.90;;;;;;5010557;28;20492;-54
2021/01/24 09:11:12;;;;;;;6.25;2.80;;;1.60;99.90;;;;;;5004071;28;20841;-54
2021/01/24 09:13:37;;;;;;;5.00;2.38;;;1.60;99.90;;;;;;5010116;28;20396;-54
2021/01/24 09:16:04;;;;;;;5.50;3.03;;;1.50;99.90;;;;;;5011160;28;20393;-54
2021/01/24 09:18:29;;;;;;;10.30;3.20;;;1.50;99.90;;;;;;5009919;28;20409;-54
2021/01/24 09:20:55;;;;;;;6.38;2.72;;;2.00;99.90;;;;;;5008951;28;20437;-54
2021/01/24 09:23:20;;;;;;;6.20;2.88;;;1.50;99.90;;;;;;5008170;28;20794;-53
2021/01/24 09:25:46;;;;;;;5.97;2.63;;;2.40;99.90;;;;;;5000330;28;20398;-54
2021/01/24 09:28:12;;;;;;;9.10;2.87;;;1.40;99.90;;;;;;4998436;28;20759;-54
2021/01/24 09:30:37;;;;;;;5.20;2.20;;;1.40;99.90;;;;;;5006505;28;20455;-54
2021/01/24 09:33:03;;;;;;;6.33;2.90;;;1.40;99.90;;;;;;5004717;28;20504;-54
2021/01/24 09:35:29;;;;;;;6.95;3.25;;;1.30;99.90;;;;;;5010836;28;20941;-54
2021/01/24 09:37:55;;;;;;;6.32;2.67;;;1.30;99.90;;;;;;5009920;28;20404;-55
2021/01/24 09:40:20;;;;;;;5.15;2.60;;;1.40;99.90;;;;;;5010409;28;20393;-54
2021/01/24 09:42:46;;;;;;;7.68;3.80;;;1.40;99.90;;;;;;5011290;28;20835;-54
2021/01/24 09:45:13;;;;;;;7.90;3.23;;;2.30;99.90;;;;;;5009528;28;20412;-54
2021/01/24 09:47:38;;;;;;;6.72;3.20;;;1.40;99.90;;;;;;5010305;28;20407;-54
2021/01/24 09:50:05;;;;;;;5.97;3.55;;;3.60;99.90;;;;;;5010620;28;20899;-55
2021/01/24 09:52:30;;;;;;;8.57;4.38;;;1.60;99.90;;;;;;5010519;28;20399;-54
2021/01/24 09:54:56;;;;;;;6.95;3.35;;;1.80;99.90;;;;;;5009675;28;20397;-55
2021/01/24 09:57:21;;;;;;;6.13;2.80;;;1.70;99.90;;;;;;5010070;28;20385;-54
2021/01/24 09:59:47;;;;;;;7.22;3.30;;;1.50;99.90;;;;;;5009241;28;20407;-54
2021/01/24 10:02:12;;;;;;;6.90;3.10;;;1.50;99.90;;;;;;5009394;28;20436;-54
2021/01/24 10:04:38;;;;;;;8.53;3.47;;;1.50;99.90;;;;;;5009733;28;20889;-54
2021/01/24 10:07:04;;;;;;;5.15;2.78;;;3.10;99.90;;;;;;5011202;28;20416;-54
2021/01/24 10:09:29;;;;;;;6.60;3.30;;;3.70;99.90;;;;;;5009442;28;20898;-54
2021/01/24 10:11:55;;;;;;;6.20;3.00;;;1.60;99.90;;;;;;5010026;28;20401;-54
2021/01/24 10:14:20;;;;;;;5.70;2.50;;;1.70;99.90;;;;;;5009239;28;20393;-53
2021/01/24 10:16:46;;;;;;;6.70;3.10;;;4.60;99.90;;;;;;5010529;28;20392;-51
2021/01/24 10:19:12;;;;;;;7.13;3.23;;;1.80;99.90;;;;;;5007787;28;20431;-51
2021/01/24 10:21:37;;;;;;;6.75;3.13;;;2.00;99.90;;;;;;5010623;28;20439;-51
2021/01/24 10:24:03;;;;;;;6.47;3.05;;;2.30;99.90;;;;;;5009468;28;20447;-51
2021/01/24 10:26:29;;;;;;;6.00;2.80;;;2.30;99.90;;;;;;5008823;28;20404;-51
2021/01/24 10:28:55;;;;;;;6.30;2.63;;;2.40;99.90;;;;;;5008964;28;20405;-51
2021/01/24 10:31:20;;;;;;;6.93;2.65;;;3.90;99.90;;;;;;5011302;28;20405;-52
2021/01/24 10:33:46;;;;;;;4.97;2.53;;;2.50;99.90;;;;;;5009070;28;20401;-51
2021/01/24 10:36:11;;;;;;;5.78;2.50;;;2.70;99.90;;;;;;5009941;28;20416;-51
2021/01/24 10:38:39;;;;;;;5.75;2.20;;;3.70;99.90;;;;;;5007714;28;20878;-51
2021/01/24 10:41:04;;;;;;;4.95;2.10;;;2.80;99.90;;;;;;5010489;28;20498;-53
2021/01/24 10:43:31;;;;;;;4.40;2.03;;;3.80;99.90;;;;;;5007881;28;20956;-52
2021/01/24 10:45:56;;;;;;;4.38;1.90;;;3.60;99.90;;;;;;5010012;28;20389;-52
2021/01/24 10:48:22;;;;;;;4.50;1.70;;;4.40;99.90;;;;;;5009901;28;20467;-52
2021/01/24 10:50:47;;;;;;;5.82;2.10;;;3.00;99.90;;;;;;5008750;28;20780;-56
2021/01/24 10:53:13;;;;;;;4.72;2.00;;;3.20;99.90;;;;;;5009081;28;20389;-55
2021/01/24 10:55:39;;;;;;;4.53;1.50;;;3.20;99.90;;;;;;5008892;28;20385;-56
2021/01/24 10:58:04;;;;;;;4.20;1.80;;;2.80;99.90;;;;;;5006857;28;20747;-55
2021/01/24 11:00:30;;;;;;;5.60;2.30;;;5.00;99.90;;;;;;5007884;28;20503;-54
2021/01/24 11:02:56;;;;;;;4.43;1.67;;;4.20;99.90;;;;;;5008473;28;20401;-55
2021/01/24 11:05:22;;;;;;;5.10;1.60;;;3.10;99.90;;;;;;5008352;28;20762;-54
2021/01/24 11:07:48;;;;;;;4.95;1.80;;;3.30;99.90;;;;;;5008207;28;20405;-55
2021/01/24 11:10:14;;;;;;;4.07;1.67;;;3.20;99.90;;;;;;5008199;28;20751;-55
2021/01/24 11:12:39;;;;;;;4.90;1.60;;;3.10;99.90;;;;;;5007955;28;20470;-55
2021/01/24 11:15:06;;;;;;;3.78;1.33;;;3.70;99.90;;;;;;5009131;28;20385;-55
2021/01/24 11:17:32;;;;;;;5.28;1.90;;;3.00;99.90;;;;;;5006325;28;20440;-55
2021/01/24 11:19:58;;;;;;;6.63;1.90;;;5.20;99.90;;;;;;5007922;28;20746;-55
2021/01/24 11:22:24;;;;;;;4.37;1.60;;;3.00;99.90;;;;;;5009008;28;20411;-54
2021/01/24 11:24:50;;;;;;;4.50;1.90;;;5.20;99.90;;;;;;5009792;28;20941;-55
2021/01/24 11:27:15;;;;;;;4.73;2.50;;;2.90;99.90;;;;;;5008342;28;20389;-54
2021/01/24 11:29:42;;;;;;;4.30;1.85;;;2.80;99.90;;;;;;5008010;28;20412;-54
2021/01/24 11:32:09;;;;;;;5.50;1.80;;;2.90;99.90;;;;;;5008936;28;20431;-55
2021/01/24 11:34:36;;;;;;;4.43;2.00;;;3.00;99.90;;;;;;5005516;28;20890;-55
2021/01/24 11:37:02;;;;;;;6.00;1.85;;;3.00;99.90;;;;;;5006693;28;20495;-54
2021/01/24 11:39:27;;;;;;;3.90;1.70;;;3.20;99.90;;;;;;5007231;28;20483;-55
2021/01/24 11:41:53;;;;;;;5.53;2.25;;;2.90;99.90;;;;;;5005616;28;20428;-54
2021/01/24 11:44:19;;;;;;;4.40;1.60;;;2.90;99.90;;;;;;5008822;28;20395;-55
2021/01/24 11:46:44;;;;;;;4.78;1.80;;;3.10;99.90;;;;;;5007313;28;20400;-54
2021/01/24 11:49:10;;;;;;;4.40;1.60;;;2.90;99.90;;;;;;5007708;28;20424;-55
2021/01/24 11:51:36;;;;;;;3.90;1.55;;;4.20;99.90;;;;;;5003928;28;20416;-57
2021/01/24 11:54:02;;;;;;;4.40;1.63;;;2.70;99.90;;;;;;5006963;28;20886;-54
2021/01/24 11:56:27;;;;;;;6.25;2.10;;;2.60;99.90;;;;;;5003317;28;20401;-54
2021/01/24 11:58:53;;;;;;;5.88;2.10;;;4.00;99.90;;;;;;5006612;28;20403;-55
2021/01/24 12:01:18;;;;;;;4.50;1.60;;;2.60;99.90;;;;;;5007935;28;20408;-55
2021/01/24 12:03:44;;;;;;;4.20;1.77;;;4.10;99.90;;;;;;5001732;28;20402;-55
2021/01/24 12:06:10;;;;;;;3.97;1.70;;;2.60;99.90;;;;;;5007592;28;20882;-54
2021/01/24 12:08:35;;;;;;;10.10;2.50;;;2.60;99.90;;;;;;5004444;28;20514;-55
2021/01/24 12:11:01;;;;;;;4.75;2.17;;;5.40;99.90;;;;;;5007935;28;20396;-55
2021/01/24 12:13:26;;;;;;;4.57;1.85;;;4.60;99.90;;;;;;5004360;28;20464;-54
2021/01/24 12:15:52;;;;;;;4.40;1.40;;;2.80;99.90;;;;;;5006649;28;20384;-54
2021/01/24 12:18:18;;;;;;;4.35;2.10;;;2.70;99.90;;;;;;5002749;28;20471;-54
2021/01/24 12:20:44;;;;;;;5.97;2.38;;;3.70;99.90;;;;;;5002934;28;20878;-54
2021/01/24 12:23:09;;;;;;;4.85;2.00;;;4.90;99.90;;;;;;5006363;28;20868;-55
2021/01/24 12:25:35;;;;;;;5.60;2.10;;;5.10;99.90;;;;;;5006548;28;20496;-54
2021/01/24 12:28:01;;;;;;;6.50;2.10;;;4.90;99.90;;;;;;5005879;28;20391;-54
2021/01/24 12:30:26;;;;;;;3.93;1.60;;;2.70;99.90;;;;;;5006885;28;20413;-54
2021/01/24 12:32:52;;;;;;;4.60;2.13;;;3.80;99.90;;;;;;5003755;28;20406;-54
2021/01/24 12:35:18;;;;;;;5.95;1.70;;;2.70;99.90;;;;;;5004494;28;20421;-53
2021/01/24 12:37:44;;;;;;;4.38;1.77;;;2.70;99.90;;;;;;5000825;28;20497;-54
2021/01/24 12:40:10;;;;;;;5.60;1.70;;;2.50;99.90;;;;;;5006800;28;20401;-54
2021/01/24 12:42:35;;;;;;;7.63;2.10;;;2.50;99.90;;;;;;5005391;28;20408;-55
2021/01/24 12:45:02;;;;;;;4.80;1.87;;;2.70;99.90;;;;;;5008245;28;20431;-54
2021/01/24 12:47:28;;;;;;;6.72;2.00;;;2.80;99.90;;;;;;5007799;28;20414;-54
2021/01/24 12:49:53;;;;;;;4.10;1.43;;;2.80;99.90;;;;;;5009368;28;20412;-55
2021/01/24 12:52:19;;;;;;;5.20;2.00;;;2.70;99.90;;;;;;5009357;28;20396;-54
2021/01/24 12:54:44;;;;;;;4.00;1.70;;;2.60;99.90;;;;;;5007702;28;20396;-55
2021/01/24 12:57:10;;;;;;;4.07;1.83;;;2.90;99.90;;;;;;5009018;28;20396;-54